sensor_id;sensor_type;location;lat;lon;timestamp;P1;durP1;ratioP1;P2;durP2;ratioP2
14048;SDS011;7099;53.922;10.728;2024-03-08T00:03:03;11.30;;;7.47;;
14048;SDS011;7099;53.922;10.728;2024-03-08T00:07:09;15.37;;;6.97;;
14048;SDS011;7099;53.922;10.728;2024-03-08T00:11:15;13.87;;;7.73;;
14048;SDS011;7099;53.922;10.728;2024-03-08T00:15:20;13.03;;;7.00;;
14048;SDS011;7099;53.922;10.728;2024-03-08T00:19:28;12.30;;;7.70;;
14048;SDS011;7099;53.922;10.728;2024-03-08T00:23:33;13.13;;;7.40;;
14048;SDS011;7099;53.922;10.728;2024-03-08T00:27:39;13.63;;;7.13;;
14048;SDS011;7099;53.922;10.728;2024-03-08T00:31:46;9.33;;;6.67;;
14048;SDS011;7099;53.922;10.728;2024-03-08T00:35:51;13.43;;;7.77;;
14048;SDS011;7099;53.922;10.728;2024-03-08T00:39:57;14.33;;;7.83;;
14048;SDS011;7099;53.922;10.728;2024-03-08T00:44:02;13.97;;;8.47;;
14048;SDS011;7099;53.922;10.728;2024-03-08T00:48:09;15.87;;;8.47;;
14048;SDS011;7099;53.922;10.728;2024-03-08T00:52:16;13.13;;;7.37;;
14048;SDS011;7099;53.922;10.728;2024-03-08T00:56:23;14.03;;;9.23;;
14048;SDS011;7099;53.922;10.728;2024-03-08T01:00:30;13.53;;;7.83;;
14048;SDS011;7099;53.922;10.728;2024-03-08T01:04:35;20.27;;;8.60;;
14048;SDS011;7099;53.922;10.728;2024-03-08T01:08:41;16.13;;;9.00;;
14048;SDS011;7099;53.922;10.728;2024-03-08T01:12:48;15.00;;;9.17;;
14048;SDS011;7099;53.922;10.728;2024-03-08T01:16:54;15.80;;;8.77;;
14048;SDS011;7099;53.922;10.728;2024-03-08T01:21:00;14.90;;;9.27;;
14048;SDS011;7099;53.922;10.728;2024-03-08T01:25:05;19.17;;;9.23;;
14048;SDS011;7099;53.922;10.728;2024-03-08T01:29:13;17.07;;;10.20;;
14048;SDS011;7099;53.922;10.728;2024-03-08T01:33:18;13.53;;;8.80;;
14048;SDS011;7099;53.922;10.728;2024-03-08T01:37:27;12.73;;;8.07;;
14048;SDS011;7099;53.922;10.728;2024-03-08T01:41:34;13.80;;;8.57;;
14048;SDS011;7099;53.922;10.728;2024-03-08T01:45:40;15.93;;;8.10;;
14048;SDS011;7099;53.922;10.728;2024-03-08T01:49:46;13.57;;;8.37;;
14048;SDS011;7099;53.922;10.728;2024-03-08T01:53:51;12.80;;;7.60;;
14048;SDS011;7099;53.922;10.728;2024-03-08T01:57:58;15.67;;;8.87;;
14048;SDS011;7099;53.922;10.728;2024-03-08T02:02:04;13.87;;;7.60;;
14048;SDS011;7099;53.922;10.728;2024-03-08T02:06:13;14.53;;;7.67;;
14048;SDS011;7099;53.922;10.728;2024-03-08T02:10:22;18.60;;;8.30;;
14048;SDS011;7099;53.922;10.728;2024-03-08T02:14:27;13.00;;;7.40;;
14048;SDS011;7099;53.922;10.728;2024-03-08T02:18:33;13.50;;;7.87;;
14048;SDS011;7099;53.922;10.728;2024-03-08T02:22:44;15.30;;;8.00;;
14048;SDS011;7099;53.922;10.728;2024-03-08T02:26:50;20.33;;;8.53;;
14048;SDS011;7099;53.922;10.728;2024-03-08T02:30:56;17.53;;;7.77;;
14048;SDS011;7099;53.922;10.728;2024-03-08T02:35:03;20.00;;;8.70;;
14048;SDS011;7099;53.922;10.728;2024-03-08T02:39:11;15.00;;;8.47;;
14048;SDS011;7099;53.922;10.728;2024-03-08T02:43:17;15.70;;;8.50;;
14048;SDS011;7099;53.922;10.728;2024-03-08T02:47:23;13.67;;;8.20;;
14048;SDS011;7099;53.922;10.728;2024-03-08T02:51:32;13.97;;;8.47;;
14048;SDS011;7099;53.922;10.728;2024-03-08T02:55:40;13.70;;;8.10;;
14048;SDS011;7099;53.922;10.728;2024-03-08T03:03:52;17.97;;;8.40;;
14048;SDS011;7099;53.922;10.728;2024-03-08T03:07:58;17.57;;;8.90;;
14048;SDS011;7099;53.922;10.728;2024-03-08T03:12:04;12.90;;;7.83;;
14048;SDS011;7099;53.922;10.728;2024-03-08T03:16:20;14.27;;;8.20;;
14048;SDS011;7099;53.922;10.728;2024-03-08T03:20:25;14.73;;;8.00;;
14048;SDS011;7099;53.922;10.728;2024-03-08T03:24:37;13.73;;;7.93;;
14048;SDS011;7099;53.922;10.728;2024-03-08T03:28:46;17.27;;;8.50;;
14048;SDS011;7099;53.922;10.728;2024-03-08T03:41:05;15.90;;;8.20;;
14048;SDS011;7099;53.922;10.728;2024-03-08T03:45:15;20.43;;;8.93;;
14048;SDS011;7099;53.922;10.728;2024-03-08T03:49:24;16.67;;;8.00;;
14048;SDS011;7099;53.922;10.728;2024-03-08T03:53:30;14.57;;;8.63;;
14048;SDS011;7099;53.922;10.728;2024-03-08T03:57:35;17.03;;;8.10;;
14048;SDS011;7099;53.922;10.728;2024-03-08T04:01:44;13.33;;;7.73;;
14048;SDS011;7099;53.922;10.728;2024-03-08T04:05:49;16.60;;;7.77;;
14048;SDS011;7099;53.922;10.728;2024-03-08T04:09:55;20.27;;;8.27;;
14048;SDS011;7099;53.922;10.728;2024-03-08T04:14:01;16.90;;;9.93;;
14048;SDS011;7099;53.922;10.728;2024-03-08T04:18:06;18.23;;;9.07;;
14048;SDS011;7099;53.922;10.728;2024-03-08T04:22:12;19.00;;;9.90;;
14048;SDS011;7099;53.922;10.728;2024-03-08T04:26:18;20.20;;;10.30;;
14048;SDS011;7099;53.922;10.728;2024-03-08T04:30:23;22.50;;;11.10;;
14048;SDS011;7099;53.922;10.728;2024-03-08T04:34:29;28.50;;;12.50;;
14048;SDS011;7099;53.922;10.728;2024-03-08T04:38:35;23.97;;;12.53;;
14048;SDS011;7099;53.922;10.728;2024-03-08T04:42:41;28.63;;;12.20;;
14048;SDS011;7099;53.922;10.728;2024-03-08T04:46:47;28.67;;;13.87;;
14048;SDS011;7099;53.922;10.728;2024-03-08T04:50:53;33.37;;;14.30;;
14048;SDS011;7099;53.922;10.728;2024-03-08T04:55:00;26.40;;;13.97;;
14048;SDS011;7099;53.922;10.728;2024-03-08T04:59:10;30.93;;;15.67;;
14048;SDS011;7099;53.922;10.728;2024-03-08T05:03:15;37.80;;;14.90;;
14048;SDS011;7099;53.922;10.728;2024-03-08T05:07:21;39.77;;;14.70;;
14048;SDS011;7099;53.922;10.728;2024-03-08T05:11:27;30.50;;;13.17;;
14048;SDS011;7099;53.922;10.728;2024-03-08T05:15:32;39.07;;;13.70;;
14048;SDS011;7099;53.922;10.728;2024-03-08T07:47:34;17.60;;;10.90;;
14048;SDS011;7099;53.922;10.728;2024-03-08T07:51:41;17.27;;;10.07;;
14048;SDS011;7099;53.922;10.728;2024-03-08T07:55:47;18.23;;;10.60;;
14048;SDS011;7099;53.922;10.728;2024-03-08T07:59:52;19.13;;;10.57;;
14048;SDS011;7099;53.922;10.728;2024-03-08T08:03:58;18.70;;;11.10;;
14048;SDS011;7099;53.922;10.728;2024-03-08T08:08:07;17.83;;;10.67;;
14048;SDS011;7099;53.922;10.728;2024-03-08T08:12:15;19.00;;;10.93;;
14048;SDS011;7099;53.922;10.728;2024-03-08T08:16:24;18.60;;;11.27;;
14048;SDS011;7099;53.922;10.728;2024-03-08T08:20:30;20.67;;;10.40;;
14048;SDS011;7099;53.922;10.728;2024-03-08T08:24:36;21.43;;;11.30;;
14048;SDS011;7099;53.922;10.728;2024-03-08T08:28:42;19.77;;;11.20;;
14048;SDS011;7099;53.922;10.728;2024-03-08T08:32:48;17.90;;;11.20;;
14048;SDS011;7099;53.922;10.728;2024-03-08T08:36:54;20.83;;;12.00;;
14048;SDS011;7099;53.922;10.728;2024-03-08T08:41:00;19.47;;;11.20;;
14048;SDS011;7099;53.922;10.728;2024-03-08T08:45:07;21.00;;;11.30;;
14048;SDS011;7099;53.922;10.728;2024-03-08T08:49:21;20.37;;;12.13;;
14048;SDS011;7099;53.922;10.728;2024-03-08T08:53:27;20.07;;;11.57;;
14048;SDS011;7099;53.922;10.728;2024-03-08T09:01:38;19.13;;;10.60;;
14048;SDS011;7099;53.922;10.728;2024-03-08T09:18:00;27.27;;;12.87;;
14048;SDS011;7099;53.922;10.728;2024-03-08T09:22:07;23.17;;;13.03;;
14048;SDS011;7099;53.922;10.728;2024-03-08T09:26:12;21.07;;;12.80;;
14048;SDS011;7099;53.922;10.728;2024-03-08T09:30:32;21.97;;;12.47;;
14048;SDS011;7099;53.922;10.728;2024-03-08T09:34:39;24.50;;;12.57;;
14048;SDS011;7099;53.922;10.728;2024-03-08T09:38:45;23.13;;;13.33;;
14048;SDS011;7099;53.922;10.728;2024-03-08T10:03:33;28.17;;;15.83;;
14048;SDS011;7099;53.922;10.728;2024-03-08T12:03:39;23.70;;;14.70;;
14048;SDS011;7099;53.922;10.728;2024-03-08T12:07:55;26.43;;;14.80;;
14048;SDS011;7099;53.922;10.728;2024-03-08T12:12:06;25.30;;;14.77;;
14048;SDS011;7099;53.922;10.728;2024-03-08T13:22:18;25.30;;;14.07;;
14048;SDS011;7099;53.922;10.728;2024-03-08T13:30:38;25.30;;;14.27;;
14048;SDS011;7099;53.922;10.728;2024-03-08T13:34:43;24.00;;;15.40;;
14048;SDS011;7099;53.922;10.728;2024-03-08T13:38:50;21.87;;;13.40;;
14048;SDS011;7099;53.922;10.728;2024-03-08T13:42:55;22.40;;;15.33;;
14048;SDS011;7099;53.922;10.728;2024-03-08T13:47:01;23.23;;;15.10;;
14048;SDS011;7099;53.922;10.728;2024-03-08T13:51:09;24.03;;;14.97;;
14048;SDS011;7099;53.922;10.728;2024-03-08T13:55:20;23.50;;;14.70;;
14048;SDS011;7099;53.922;10.728;2024-03-08T13:59:26;27.57;;;15.50;;
14048;SDS011;7099;53.922;10.728;2024-03-08T14:03:34;27.40;;;14.20;;
14048;SDS011;7099;53.922;10.728;2024-03-08T14:07:39;25.77;;;13.87;;
14048;SDS011;7099;53.922;10.728;2024-03-08T14:11:45;27.40;;;15.73;;
14048;SDS011;7099;53.922;10.728;2024-03-08T14:15:51;25.00;;;15.60;;
14048;SDS011;7099;53.922;10.728;2024-03-08T14:19:57;30.40;;;17.40;;
14048;SDS011;7099;53.922;10.728;2024-03-08T14:24:04;27.80;;;15.63;;
14048;SDS011;7099;53.922;10.728;2024-03-08T14:28:10;28.97;;;17.67;;
14048;SDS011;7099;53.922;10.728;2024-03-08T14:32:17;22.70;;;15.23;;
14048;SDS011;7099;53.922;10.728;2024-03-08T14:36:25;25.80;;;15.00;;
14048;SDS011;7099;53.922;10.728;2024-03-08T14:40:31;26.80;;;15.33;;
14048;SDS011;7099;53.922;10.728;2024-03-08T14:44:38;24.90;;;16.20;;
14048;SDS011;7099;53.922;10.728;2024-03-08T14:48:44;29.23;;;17.57;;
14048;SDS011;7099;53.922;10.728;2024-03-08T14:52:54;28.37;;;16.37;;
14048;SDS011;7099;53.922;10.728;2024-03-08T14:57:00;26.33;;;15.83;;
14048;SDS011;7099;53.922;10.728;2024-03-08T15:01:06;26.33;;;16.53;;
14048;SDS011;7099;53.922;10.728;2024-03-08T15:05:13;24.07;;;16.00;;
14048;SDS011;7099;53.922;10.728;2024-03-08T15:09:19;22.23;;;15.30;;
14048;SDS011;7099;53.922;10.728;2024-03-08T15:13:24;19.40;;;12.13;;
14048;SDS011;7099;53.922;10.728;2024-03-08T15:17:38;24.97;;;12.70;;
14048;SDS011;7099;53.922;10.728;2024-03-08T15:21:46;18.37;;;11.50;;
14048;SDS011;7099;53.922;10.728;2024-03-08T15:25:55;23.63;;;13.30;;
14048;SDS011;7099;53.922;10.728;2024-03-08T15:30:01;21.30;;;12.30;;
14048;SDS011;7099;53.922;10.728;2024-03-08T15:34:08;15.00;;;10.17;;
14048;SDS011;7099;53.922;10.728;2024-03-08T15:38:16;15.90;;;11.10;;
14048;SDS011;7099;53.922;10.728;2024-03-08T15:42:24;19.70;;;11.40;;
14048;SDS011;7099;53.922;10.728;2024-03-08T15:46:31;15.53;;;10.20;;
14048;SDS011;7099;53.922;10.728;2024-03-08T15:50:38;19.40;;;10.87;;
14048;SDS011;7099;53.922;10.728;2024-03-08T15:54:43;20.27;;;11.43;;
14048;SDS011;7099;53.922;10.728;2024-03-08T15:58:50;19.63;;;11.70;;
14048;SDS011;7099;53.922;10.728;2024-03-08T16:02:58;20.80;;;11.77;;
14048;SDS011;7099;53.922;10.728;2024-03-08T16:07:08;16.53;;;11.17;;
14048;SDS011;7099;53.922;10.728;2024-03-08T16:11:14;21.97;;;11.23;;
14048;SDS011;7099;53.922;10.728;2024-03-08T16:15:22;16.40;;;10.90;;
14048;SDS011;7099;53.922;10.728;2024-03-08T16:19:28;24.80;;;11.13;;
14048;SDS011;7099;53.922;10.728;2024-03-08T16:23:35;14.47;;;10.17;;
14048;SDS011;7099;53.922;10.728;2024-03-08T16:27:42;16.60;;;10.40;;
14048;SDS011;7099;53.922;10.728;2024-03-08T16:31:48;22.60;;;11.43;;
14048;SDS011;7099;53.922;10.728;2024-03-08T16:35:53;19.00;;;11.33;;
14048;SDS011;7099;53.922;10.728;2024-03-08T16:39:59;17.60;;;10.60;;
14048;SDS011;7099;53.922;10.728;2024-03-08T16:44:05;16.00;;;10.20;;
14048;SDS011;7099;53.922;10.728;2024-03-08T16:48:11;20.70;;;10.50;;
14048;SDS011;7099;53.922;10.728;2024-03-08T16:52:17;18.77;;;10.60;;
14048;SDS011;7099;53.922;10.728;2024-03-08T16:56:22;18.60;;;10.80;;
14048;SDS011;7099;53.922;10.728;2024-03-08T17:00:29;18.33;;;10.97;;
14048;SDS011;7099;53.922;10.728;2024-03-08T17:04:37;15.60;;;10.90;;
14048;SDS011;7099;53.922;10.728;2024-03-08T17:08:43;22.80;;;10.60;;
14048;SDS011;7099;53.922;10.728;2024-03-08T17:12:50;15.17;;;10.73;;
14048;SDS011;7099;53.922;10.728;2024-03-08T17:17:00;17.20;;;10.23;;
14048;SDS011;7099;53.922;10.728;2024-03-08T17:21:06;20.63;;;11.17;;
14048;SDS011;7099;53.922;10.728;2024-03-08T17:25:18;15.77;;;11.23;;
14048;SDS011;7099;53.922;10.728;2024-03-08T17:29:26;16.00;;;10.07;;
14048;SDS011;7099;53.922;10.728;2024-03-08T17:33:31;21.03;;;10.37;;
14048;SDS011;7099;53.922;10.728;2024-03-08T17:37:40;17.93;;;11.20;;
14048;SDS011;7099;53.922;10.728;2024-03-08T17:41:46;18.70;;;10.90;;
14048;SDS011;7099;53.922;10.728;2024-03-08T17:45:56;19.67;;;11.70;;
14048;SDS011;7099;53.922;10.728;2024-03-08T17:50:04;22.57;;;11.77;;
14048;SDS011;7099;53.922;10.728;2024-03-08T17:54:15;24.50;;;10.93;;
14048;SDS011;7099;53.922;10.728;2024-03-08T17:58:21;18.53;;;10.93;;
14048;SDS011;7099;53.922;10.728;2024-03-08T18:02:26;20.93;;;12.47;;
14048;SDS011;7099;53.922;10.728;2024-03-08T18:06:33;20.33;;;11.60;;
14048;SDS011;7099;53.922;10.728;2024-03-08T18:10:48;20.13;;;11.37;;
14048;SDS011;7099;53.922;10.728;2024-03-08T18:14:54;18.47;;;11.20;;
14048;SDS011;7099;53.922;10.728;2024-03-08T18:19:02;19.50;;;11.90;;
14048;SDS011;7099;53.922;10.728;2024-03-08T18:23:13;20.33;;;11.77;;
14048;SDS011;7099;53.922;10.728;2024-03-08T18:27:19;29.30;;;11.17;;
14048;SDS011;7099;53.922;10.728;2024-03-08T18:31:25;24.70;;;12.00;;
14048;SDS011;7099;53.922;10.728;2024-03-08T18:35:32;17.83;;;11.20;;
14048;SDS011;7099;53.922;10.728;2024-03-08T18:39:39;23.10;;;13.00;;
14048;SDS011;7099;53.922;10.728;2024-03-08T18:43:44;22.57;;;12.40;;
14048;SDS011;7099;53.922;10.728;2024-03-08T18:47:51;19.20;;;11.97;;
14048;SDS011;7099;53.922;10.728;2024-03-08T18:51:57;24.10;;;12.03;;
14048;SDS011;7099;53.922;10.728;2024-03-08T18:56:04;19.33;;;12.20;;
14048;SDS011;7099;53.922;10.728;2024-03-08T19:00:18;22.53;;;13.00;;
14048;SDS011;7099;53.922;10.728;2024-03-08T19:04:35;21.30;;;13.50;;
14048;SDS011;7099;53.922;10.728;2024-03-08T19:08:41;19.57;;;12.23;;
14048;SDS011;7099;53.922;10.728;2024-03-08T19:12:48;19.77;;;12.80;;
14048;SDS011;7099;53.922;10.728;2024-03-08T19:16:58;22.00;;;12.80;;
14048;SDS011;7099;53.922;10.728;2024-03-08T19:21:03;24.40;;;13.23;;
14048;SDS011;7099;53.922;10.728;2024-03-08T19:25:09;22.80;;;13.50;;
14048;SDS011;7099;53.922;10.728;2024-03-08T19:29:16;26.63;;;13.53;;
14048;SDS011;7099;53.922;10.728;2024-03-08T19:33:24;19.90;;;12.47;;
14048;SDS011;7099;53.922;10.728;2024-03-08T19:37:31;22.43;;;13.20;;
14048;SDS011;7099;53.922;10.728;2024-03-08T19:41:37;21.90;;;12.00;;
14048;SDS011;7099;53.922;10.728;2024-03-08T20:10:19;22.23;;;12.20;;
14048;SDS011;7099;53.922;10.728;2024-03-08T20:14:26;21.30;;;13.07;;
14048;SDS011;7099;53.922;10.728;2024-03-08T20:18:32;17.90;;;11.03;;
14048;SDS011;7099;53.922;10.728;2024-03-08T20:22:43;23.73;;;12.70;;
14048;SDS011;7099;53.922;10.728;2024-03-08T20:26:50;18.90;;;12.47;;
14048;SDS011;7099;53.922;10.728;2024-03-08T20:30:56;29.53;;;13.07;;
14048;SDS011;7099;53.922;10.728;2024-03-08T20:35:02;18.33;;;11.20;;
14048;SDS011;7099;53.922;10.728;2024-03-08T20:39:08;18.80;;;12.37;;
14048;SDS011;7099;53.922;10.728;2024-03-08T20:43:14;21.77;;;11.57;;
14048;SDS011;7099;53.922;10.728;2024-03-08T20:47:20;24.30;;;13.00;;
14048;SDS011;7099;53.922;10.728;2024-03-08T20:51:27;28.30;;;13.73;;
14048;SDS011;7099;53.922;10.728;2024-03-08T22:30:29;22.17;;;12.07;;
14048;SDS011;7099;53.922;10.728;2024-03-08T22:34:35;18.57;;;11.50;;
14048;SDS011;7099;53.922;10.728;2024-03-08T22:38:41;22.00;;;12.83;;
14048;SDS011;7099;53.922;10.728;2024-03-08T22:42:46;20.80;;;11.70;;
14048;SDS011;7099;53.922;10.728;2024-03-08T22:46:52;19.90;;;11.50;;
14048;SDS011;7099;53.922;10.728;2024-03-08T22:50:57;17.40;;;11.23;;
14048;SDS011;7099;53.922;10.728;2024-03-08T22:55:03;21.57;;;11.17;;
14048;SDS011;7099;53.922;10.728;2024-03-08T22:59:11;18.97;;;10.83;;
14048;SDS011;7099;53.922;10.728;2024-03-08T23:03:17;16.83;;;10.13;;
14048;SDS011;7099;53.922;10.728;2024-03-08T23:07:27;19.10;;;10.57;;
14048;SDS011;7099;53.922;10.728;2024-03-08T23:11:36;20.93;;;11.63;;
14048;SDS011;7099;53.922;10.728;2024-03-08T23:15:41;18.70;;;10.33;;
14048;SDS011;7099;53.922;10.728;2024-03-08T23:19:48;18.90;;;10.87;;
14048;SDS011;7099;53.922;10.728;2024-03-08T23:24:00;19.67;;;10.70;;
14048;SDS011;7099;53.922;10.728;2024-03-08T23:28:06;19.63;;;10.43;;
14048;SDS011;7099;53.922;10.728;2024-03-08T23:32:13;16.70;;;9.93;;
14048;SDS011;7099;53.922;10.728;2024-03-08T23:36:18;15.30;;;9.57;;
14048;SDS011;7099;53.922;10.728;2024-03-08T23:40:24;16.87;;;10.23;;
14048;SDS011;7099;53.922;10.728;2024-03-08T23:44:30;19.37;;;10.33;;
14048;SDS011;7099;53.922;10.728;2024-03-08T23:48:36;18.27;;;9.57;;
14048;SDS011;7099;53.922;10.728;2024-03-08T23:52:42;16.60;;;9.77;;
14048;SDS011;7099;53.922;10.728;2024-03-08T23:56:51;19.53;;;10.23;;
